Latest Coastal Weather Observations for Redcliffe

IDQ60701

Issued at 5:35 am EST Thursday 17 April 2014 (issued every 10 minutes, with the page automatically refreshed every 10 minutes)

About coastal observations | Map of coastal stations | Coastal observations for QLD | Marine services | Other Formats
Station Details ID: 040958 Name: REDCLIFFE Lat: -27.22 Lon: 153.09 Height: 12.6 m
Data from the previous 72 hours. | See also: Recent months at Redcliffe
Date/Time
EST
Temp

°C
Wind Pressure Rain
since 9am
mm
Weather Cloud Vis
km
Sea
Height
m
Swell
Dir
 
Speed
knots
Gust
knots
hPa Trend Height
m
Period
s
Dir
17/05:30am 16.6 WSW 7 9 1016.9 - 0.0 - - - - - - -
17/05:00am 16.6 WSW 7 8 1016.7 - 0.0 - - - - - - -
17/04:30am 16.6 WSW 7 8 1016.5 - 0.0 - - - - - - -
17/04:00am 16.5 WSW 6 8 1016.3 - 0.0 - - - - - - -
17/03:30am 16.5 WSW 7 9 1016.0 - 0.0 - - - - - - -
17/03:00am 16.7 WSW 7 9 1015.9 - 0.0 - - - - - - -
17/02:30am 17.1 WSW 6 8 1016.0 - 0.0 - - - - - - -
17/02:00am 17.1 SW 6 8 1016.0 - 0.0 - - - - - - -
17/01:30am 17.3 SSW 6 8 1016.4 - 0.0 - - - - - - -
17/01:00am 17.5 S 8 10 1016.5 - 0.0 - - - - - - -
17/12:30am 17.8 S 9 12 1016.5 - 0.0 - - - - - - -
17/12:00am 18.0 S 8 10 1016.5 - 0.0 - - - - - - -
 
Date/Time
EST
Temp

°C
Wind Pressure Rain
since 9am
mm
Weather Cloud Vis
km
Sea
Height
m
Swell
Dir
 
Speed
knots
Gust
knots
hPa Trend Height
m
Period
s
Dir
16/11:30pm 18.5 SSW 4 6 1016.6 - 0.0 - - - - - - -
16/11:00pm 18.7 S 5 7 1016.6 - 0.0 - - - - - - -
16/10:30pm 18.9 SW 6 7 1016.7 - 0.0 - - - - - - -
16/10:00pm 19.4 S 9 13 1016.8 - 0.0 - - - - - - -
16/09:30pm 20.2 SSE 7 9 1016.8 - 0.0 - - - - - - -
16/09:00pm 21.1 SE 7 9 1016.4 - 0.0 - - - - - - -
16/08:30pm 21.9 SE 9 10 1016.2 - 0.0 - - - - - - -
16/08:00pm 22.2 SSE 11 14 1015.9 - 0.0 - - - - - - -
16/07:30pm 22.2 ESE 8 9 1015.6 - 0.0 - - - - - - -
16/07:00pm 22.1 E 9 11 1015.3 - 0.0 - - - - - - -
16/06:30pm 22.4 E 9 11 1015.0 - 0.0 - - - - - - -
16/06:00pm 22.6 ESE 11 13 1014.4 - 0.0 - - - - - - -
16/05:30pm 22.8 ESE 14 16 1014.2 - 0.0 - - - - - - -
16/05:00pm 23.1 E 13 15 1014.0 - 0.0 - - - - - - -
16/04:30pm 23.4 E 13 15 1013.7 - 0.0 - - - - - - -
16/04:00pm 23.9 ESE 10 12 1013.6 - 0.0 - - - - - - -
16/03:30pm 24.0 E 9 10 1013.3 - 0.0 - - - - - - -
16/03:00pm 23.9 E 8 10 1013.3 - 0.0 - - - - - - -
16/02:30pm 24.2 ENE 7 9 1013.6 - 0.0 - - - - - - -
16/02:00pm 24.4 E 7 8 1013.7 - 0.0 - - - - - - -
16/01:30pm 24.7 ESE 9 10 1013.9 - 0.0 - - - - - - -
16/01:00pm 24.7 ESE 8 9 1014.0 - 0.0 - - - - - - -
16/12:30pm 25.4 ESE 7 8 1014.5 - 0.0 - - - - - - -
16/12:00pm 24.8 SE 8 10 1014.9 - 0.0 - - - - - - -
16/11:30am 25.4 S 8 10 1015.5 - 0.0 - - - - - - -
16/11:00am 24.4 S 9 12 1016.0 - 0.0 - - - - - - -
16/10:30am 24.4 S 9 11 1016.4 - 0.0 - - - - - - -
16/10:00am 23.8 SSW 7 9 1016.6 - 0.0 - - - - - - -
16/09:30am 22.7 SSW 7 9 1016.8 - 0.0 - - - - - - -
16/09:00am 21.8 SW 9 13 1016.8 - 0.2 - - - - - - -
16/08:30am 21.2 SW 8 12 1016.9 - 0.2 - - - - - - -
16/08:00am 19.7 WSW 8 10 1016.7 - 0.2 - - - - - - -
16/07:30am 18.1 SW 7 11 1016.5 - 0.2 - - - - - - -
16/07:00am 16.7 WSW 7 9 1016.2 - 0.2 - - - - - - -
16/06:30am 15.8 WSW 7 9 1015.7 - 0.2 - - - - - - -
16/06:00am 15.7 WSW 7 8 1015.3 - 0.2 - - - - - - -
16/05:30am 15.4 SW 7 9 1015.1 - 0.2 - - - - - - -
16/05:00am 15.6 SW 7 9 1015.0 - 0.2 - - - - - - -
16/04:30am 15.8 WSW 7 9 1014.9 - 0.2 - - - - - - -
16/04:00am 15.9 WSW 8 9 1014.9 - 0.2 - - - - - - -
16/03:30am 16.0 WSW 6 8 1014.9 - 0.2 - - - - - - -
16/03:00am 16.1 WSW 7 9 1014.8 - 0.2 - - - - - - -
16/02:30am 16.4 WSW 8 10 1014.9 - 0.2 - - - - - - -
16/02:00am 16.7 WSW 8 11 1014.9 - 0.2 - - - - - - -
16/01:30am 17.3 WSW 8 10 1015.3 - 0.2 - - - - - - -
16/01:00am 17.3 WSW 7 10 1015.4 - 0.2 - - - - - - -
16/12:30am 17.7 WSW 8 9 1015.5 - 0.2 - - - - - - -
16/12:00am 17.6 WSW 7 9 1015.4 - 0.2 - - - - - - -
 
Date/Time
EST
Temp

°C
Wind Pressure Rain
since 9am
mm
Weather Cloud Vis
km
Sea
Height
m
Swell
Dir
 
Speed
knots
Gust
knots
hPa Trend Height
m
Period
s
Dir
15/11:30pm 18.1 WSW 7 9 1015.8 - 0.2 - - - - - - -
15/11:00pm 18.1 WSW 7 8 1015.9 - 0.2 - - - - - - -
15/10:30pm 18.7 SW 8 11 1016.2 - 0.2 - - - - - - -
15/10:00pm 19.6 SSW 11 16 1016.2 - 0.2 - - - - - - -
15/09:30pm 20.6 S 19 24 1016.0 - 0.2 - - - - - - -
15/09:00pm 20.5 S 20 26 1015.9 - 0.2 - - - - - - -
15/08:30pm 20.8 SSE 23 27 1016.2 - 0.2 - - - - - - -
15/08:00pm 21.1 SSE 21 26 1016.1 - 0.2 - - - - - - -
15/07:30pm 21.3 SSE 19 23 1015.8 - 0.2 - - - - - - -
15/07:00pm 21.3 SSE 21 24 1015.4 - 0.2 - - - - - - -
15/06:30pm 21.4 SSE 21 25 1015.2 - 0.2 - - - - - - -
15/06:00pm 21.7 SSE 20 22 1014.7 - 0.2 - - - - - - -
15/05:30pm 22.0 SSE 19 22 1014.4 - 0.2 - - - - - - -
15/05:00pm 22.4 SE 19 21 1014.0 - 0.2 - - - - - - -
15/04:30pm 22.9 SSE 15 18 1013.8 - 0.2 - - - - - - -
15/04:00pm 23.3 SSE 14 17 1013.8 - 0.2 - - - - - - -
15/03:30pm 23.2 SSE 16 18 1013.8 - 0.2 - - - - - - -
15/03:00pm 22.6 SSE 19 21 1013.7 - 0.2 - - - - - - -
15/02:30pm 22.8 SSE 19 22 1013.7 - 0.2 - - - - - - -
15/02:00pm 22.6 SSE 21 25 1013.6 - 0.2 - - - - - - -
15/01:30pm 23.1 SSE 21 25 1013.8 - 0.2 - - - - - - -
15/01:00pm 23.1 SSE 19 22 1013.9 - 0.2 - - - - - - -
15/12:30pm 23.3 SSE 18 22 1014.3 - 0.2 - - - - - - -
15/12:00pm 23.6 S 13 17 1014.8 - 0.2 - - - - - - -
15/11:30am 24.4 S 11 18 1015.2 - 0.2 - - - - - - -
15/11:00am 23.9 SSE 16 19 1015.4 - 0.2 - - - - - - -
15/10:30am 23.4 S 11 16 1015.9 - 0.2 - - - - - - -
15/10:00am 23.2 S 13 18 1016.1 - 0.2 - - - - - - -
15/09:30am 22.0 S 12 16 1016.4 - 0.0 - - - - - - -
15/09:00am 22.4 S 14 18 1016.3 - 0.6 - - - - - - -
15/08:30am 22.4 S 13 16 1016.2 - 0.6 - - - - - - -
15/08:00am 21.3 SSW 9 14 1015.9 - 0.6 - - - - - - -
15/07:30am 20.7 SSW 10 15 1015.6 - 0.6 - - - - - - -
15/07:00am 19.7 SSW 10 15 1015.4 - 0.6 - - - - - - -
15/06:30am 18.9 SSW 9 17 1015.2 - 0.6 - - - - - - -
15/06:00am 18.7 SSW 9 14 1014.6 - 0.6 - - - - - - -
15/05:30am 18.7 SSW 8 11 1014.6 - 0.6 - - - - - - -
15/05:00am 18.8 SSW 8 11 1014.3 - 0.6 - - - - - - -
15/04:30am 18.9 SSW 11 15 1013.9 - 0.6 - - - - - - -
15/04:00am 19.2 SSW 10 13 1013.7 - 0.6 - - - - - - -
15/03:30am 19.2 SSW 12 16 1013.5 - 0.6 - - - - - - -
15/03:00am 19.5 SSW 12 16 1013.3 - 0.6 - - - - - - -
15/02:30am 19.6 SSW 11 16 1013.4 - 0.6 - - - - - - -
15/02:00am 20.0 S 18 22 1013.6 - 0.6 - - - - - - -
15/01:30am 20.9 S 21 26 1013.5 - 0.6 - - - - - - -
15/01:00am 20.7 S 20 23 1013.4 - 0.6 - - - - - - -
15/12:30am 20.8 S 21 24 1013.7 - 0.6 - - - - - - -
15/12:00am 21.0 S 21 25 1013.8 - 0.6 - - - - - - -
 
Date/Time
EST
Temp

°C
Wind Pressure Rain
since 9am
mm
Weather Cloud Vis
km
Sea
Height
m
Swell
Dir
 
Speed
knots
Gust
knots
hPa Trend Height
m
Period
s
Dir
14/11:30pm 21.1 S 23 28 1014.0 - 0.6 - - - - - - -
14/11:00pm 21.3 S 22 26 1014.2 - 0.6 - - - - - - -
14/10:30pm 21.5 S 23 28 1014.4 - 0.6 - - - - - - -
14/10:00pm 21.4 S 22 28 1014.6 - 0.6 - - - - - - -
14/09:30pm 21.6 S 23 27 1014.5 - 0.6 - - - - - - -
14/09:00pm 21.6 S 20 25 1014.2 - 0.6 - - - - - - -
14/08:30pm 21.6 S 21 26 1014.2 - 0.6 - - - - - - -
14/08:00pm 21.8 S 21 25 1014.0 - 0.6 - - - - - - -
14/07:30pm 21.7 S 20 26 1013.7 - 0.6 - - - - - - -
14/07:00pm 21.7 S 21 26 1013.1 - 0.6 - - - - - - -
14/06:30pm 21.9 S 22 27 1012.8 - 0.6 - - - - - - -
14/06:27pm 21.9 S 23 33 1012.8 - 0.6 - - - - - - -
14/06:00pm 22.9 SSE 26 32 1012.2 - 0.6 - - - - - - -
14/05:30pm 23.1 SSE 28 33 1011.8 - 0.6 - - - - - - -
14/05:00pm 23.2 SSE 28 33 1011.5 - 0.6 - - - - - - -
14/04:30pm 23.3 SSE 27 32 1011.3 - 0.6 - - - - - - -
14/04:00pm 23.6 SSE 28 33 1010.9 - 0.6 - - - - - - -
14/03:30pm 23.2 SSE 25 31 1010.8 - 0.6 - - - - - - -
14/03:00pm 23.9 SSE 26 31 1010.5 - 0.6 - - - - - - -
14/02:30pm 23.8 SSE 25 29 1010.6 - 0.6 - - - - - - -
14/02:08pm 22.6 SE 26 29 1010.7 - 0.6 - - - - - - -
14/02:00pm 22.1 S 19 22 1010.8 - 0.6 - - - - - - -
14/01:47pm 21.6 SSE 18 25 1011.0 - 0.6 - - - - - - -
14/01:36pm 22.1 SE 23 27 1010.8 - 0.0 - - - - - - -
14/01:30pm 22.2 S 22 26 1010.8 - 0.0 - - - - - - -
14/01:00pm 21.9 SSE 27 31 1011.0 - 0.0 - - - - - - -
14/12:30pm 21.9 SSE 23 29 1011.4 - 0.0 - - - - - - -
14/12:00pm 21.9 SSE 27 31 1011.8 - 0.0 - - - - - - -
14/11:30am 22.8 SSE 27 32 1012.1 - 0.0 - - - - - - -
14/11:00am 22.5 SSE 24 30 1012.4 - 0.0 - - - - - - -
14/10:30am 22.1 SSE 24 29 1012.9 - 0.0 - - - - - - -
14/10:00am 22.1 SSE 25 29 1012.7 - 0.0 - - - - - - -
14/09:30am 22.2 S 23 28 1012.9 - 0.0 - - - - - - -
14/09:00am 21.9 S 22 26 1013.1 - 16.6 - - - - - - -
14/08:30am 21.4 S 20 24 1013.0 - 16.6 - - - - - - -
14/08:00am 20.9 S 20 24 1012.7 - 16.4 - - - - - - -
14/07:30am 21.5 S 21 25 1012.4 - 16.2 - - - - - - -
14/07:00am 21.5 SSE 21 25 1012.6 - 16.2 - - - - - - -
14/06:30am 21.2 S 22 28 1012.4 - 16.2 - - - - - - -
14/06:00am 21.2 S 22 26 1012.0 - 16.2 - - - - - - -

Other Formats:

Comma delimited format used in spreadsheet applications
http://www.bom.gov.au/fwo/IDQ60701/IDQ60701.95591.axf

JavaScript Object Notation format (JSON) in row-major order
http://www.bom.gov.au/fwo/IDQ60701/IDQ60701.95591.json